Time;durP1;ratioP1;P1;durP2;ratioP2;P2;SDS_P1;SDS_P2;PMS_P1;PMS_P2;Temp;Humidity;BMP_temperature;BMP_pressure;BME280_temperature;BME280_humidity;BME280_pressure;Samples;Min_cycle;Max_cycle;Signal;HPM_P1;HPM_P2
2023/01/26 00:00:16;;;;;;;11.23;3.40;;;;;;;;;;5027489;28;20591;-64
2023/01/26 00:02:42;;;;;;;3.27;2.37;;;;;;;;;;5027926;28;20491;-64
2023/01/26 00:05:09;;;;;;;6.80;3.43;;;;;;;;;;5028702;28;20029;-64
2023/01/26 00:07:36;;;;;;;5.03;2.83;;;;;;;;;;5032191;28;20499;-64
2023/01/26 00:10:03;;;;;;;4.53;3.13;;;;;;;;;;5044684;28;20040;-65
2023/01/26 00:12:30;;;;;;;7.47;3.17;;;;;;;;;;5052779;28;20032;-65
2023/01/26 00:14:57;;;;;;;5.10;3.37;;;;;;;;;;5053095;28;20079;-64
2023/01/26 00:17:26;;;;;;;8.27;3.20;;;;;;;;;;5032182;28;20499;-64
2023/01/26 00:19:54;;;;;;;4.07;2.77;;;;;;;;;;5027206;28;20558;-64
2023/01/26 00:22:21;;;;;;;10.50;2.67;;;;;;;;;;5026458;28;20025;-65
2023/01/26 00:24:48;;;;;;;3.07;2.17;;;;;;;;;;5027197;28;20064;-66
2023/01/26 00:27:14;;;;;;;5.27;3.10;;;;;;;;;;5028372;28;20120;-65
2023/01/26 00:29:41;;;;;;;4.60;2.90;;;;;;;;;;5031954;28;20034;-65
2023/01/26 00:32:08;;;;;;;5.40;2.80;;;;;;;;;;5032321;28;20029;-63
2023/01/26 00:34:34;;;;;;;7.83;2.57;;;;;;;;;;5032055;28;20029;-65
2023/01/26 00:37:01;;;;;;;3.73;2.13;;;;;;;;;;5031740;28;20025;-65
2023/01/26 00:39:28;;;;;;;3.17;2.30;;;;;;;;;;5030973;28;20028;-65
2023/01/26 00:42:09;;;;;;;5.10;2.40;;;;;;;;;;5027050;28;20055;-63
2023/01/26 00:44:37;;;;;;;2.23;1.63;;;;;;;;;;5026952;28;20053;-64
2023/01/26 00:47:05;;;;;;;2.80;1.70;;;;;;;;;;5026180;28;21668;-63
2023/01/26 00:49:31;;;;;;;4.37;2.77;;;;;;;;;;5027833;28;20052;-64
2023/01/26 00:51:58;;;;;;;3.40;2.07;;;;;;;;;;5032393;28;20083;-66
2023/01/26 00:54:25;;;;;;;3.20;2.30;;;;;;;;;;5032446;28;20076;-66
2023/01/26 00:56:52;;;;;;;4.87;2.70;;;;;;;;;;5032354;28;20473;-65
2023/01/26 00:59:18;;;;;;;3.00;2.07;;;;;;;;;;5032121;28;20036;-65
2023/01/26 01:01:45;;;;;;;2.47;1.97;;;;;;;;;;5030246;28;20041;-66
2023/01/26 01:04:12;;;;;;;2.97;1.83;;;;;;;;;;5025855;28;20030;-66
2023/01/26 01:06:38;;;;;;;2.27;1.83;;;;;;;;;;5026879;28;20412;-65
2023/01/26 01:09:05;;;;;;;3.53;2.07;;;;;;;;;;5030753;28;20063;-66
2023/01/26 01:11:32;;;;;;;6.33;2.43;;;;;;;;;;5047107;28;20063;-66
2023/01/26 01:13:58;;;;;;;2.37;1.80;;;;;;;;;;5052126;28;20475;-66
2023/01/26 01:16:27;;;;;;;3.33;2.17;;;;;;;;;;5042038;28;20017;-66
2023/01/26 01:18:54;;;;;;;2.23;1.87;;;;;;;;;;5031366;28;20021;-66
2023/01/26 01:21:22;;;;;;;1.80;1.53;;;;;;;;;;5032086;28;20080;-66
2023/01/26 01:23:49;;;;;;;2.47;1.60;;;;;;;;;;5031499;28;20372;-66
2023/01/26 01:26:15;;;;;;;2.27;1.77;;;;;;;;;;5026922;28;20025;-65
2023/01/26 01:28:43;;;;;;;4.70;2.10;;;;;;;;;;5026242;28;20084;-65
2023/01/26 01:31:14;;;;;;;2.97;1.93;;;;;;;;;;5026553;28;20368;-67
2023/01/26 01:33:41;;;;;;;3.90;2.23;;;;;;;;;;5026713;28;20076;-67
2023/01/26 01:36:09;;;;;;;2.80;2.13;;;;;;;;;;5031355;28;20399;-66
2023/01/26 01:38:35;;;;;;;5.33;2.17;;;;;;;;;;5031658;28;20372;-66
2023/01/26 01:41:02;;;;;;;2.97;1.90;;;;;;;;;;5031358;28;20036;-66
2023/01/26 01:43:29;;;;;;;3.57;2.17;;;;;;;;;;5031663;28;20037;-67
2023/01/26 01:45:56;;;;;;;3.43;2.17;;;;;;;;;;5031825;28;20056;-66
2023/01/26 01:48:55;;;;;;;6.20;2.50;;;;;;;;;;5026644;28;20037;-66
2023/01/26 01:51:29;;;;;;;3.43;1.90;;;;;;;;;;5003575;28;20416;-66
2023/01/26 01:53:58;;;;;;;4.22;2.88;;;;;;;;;;5026633;28;20029;-66
2023/01/26 01:56:26;;;;;;;6.87;3.37;;;;;;;;;;5027040;28;20037;-66
2023/01/26 01:58:55;;;;;;;4.13;2.43;;;;;;;;;;5031744;28;20026;-66
2023/01/26 02:01:21;;;;;;;6.33;3.60;;;;;;;;;;5034369;28;20061;-66
2023/01/26 02:03:51;;;;;;;6.50;3.07;;;;;;;;;;5034865;28;20344;-66
2023/01/26 02:06:23;;;;;;;17.97;2.73;;;;;;;;;;5035174;28;20514;-65
2023/01/26 02:08:51;;;;;;;3.33;2.23;;;;;;;;;;5033713;28;20495;-66
2023/01/26 02:11:20;;;;;;;12.53;2.80;;;;;;;;;;5037322;28;20021;-65
2023/01/26 02:13:48;;;;;;;4.90;2.80;;;;;;;;;;5029076;28;20488;-66
2023/01/26 02:16:15;;;;;;;4.73;2.97;;;;;;;;;;5028742;28;20028;-66
2023/01/26 02:18:43;;;;;;;3.77;2.67;;;;;;;;;;5030364;28;20045;-65
2023/01/26 02:21:12;;;;;;;6.13;3.93;;;;;;;;;;5034919;28;20017;-65
2023/01/26 02:24:05;;;;;;;4.97;3.27;;;;;;;;;;5033932;28;20021;-65
2023/01/26 02:26:33;;;;;;;4.17;2.77;;;;;;;;;;5004264;28;20095;-66
2023/01/26 02:29:00;;;;;;;5.87;2.93;;;;;;;;;;5034488;28;20042;-65
2023/01/26 02:31:28;;;;;;;3.87;2.50;;;;;;;;;;5030916;28;20044;-65
2023/01/26 02:33:54;;;;;;;4.03;2.63;;;;;;;;;;5029289;28;20026;-66
2023/01/26 02:36:25;;;;;;;5.33;2.83;;;;;;;;;;5030303;28;20459;-65
2023/01/26 02:38:58;;;;;;;13.67;2.33;;;;;;;;;;5027929;28;20378;-65
2023/01/26 02:44:11;;;;;;;2.97;1.73;;;;;;;;;;5037740;28;20490;-66
2023/01/26 02:46:38;;;;;;;2.57;1.80;;;;;;;;;;5033812;28;20480;-66
2023/01/26 02:51:49;;;;;;;3.72;2.45;;;;;;;;;;5038824;28;20557;-65
2023/01/26 02:57:01;;;;;;;6.50;3.17;;;;;;;;;;5037107;28;20041;-65
2023/01/26 02:59:28;;;;;;;2.47;1.67;;;;;;;;;;5028847;28;20051;-66
2023/01/26 03:01:55;;;;;;;2.57;1.60;;;;;;;;;;5029163;28;20033;-65
2023/01/26 03:04:22;;;;;;;4.20;2.93;;;;;;;;;;5031680;28;20030;-66
2023/01/26 03:06:49;;;;;;;8.30;2.53;;;;;;;;;;5014474;28;20026;-66
2023/01/26 03:09:15;;;;;;;3.23;2.40;;;;;;;;;;5032271;28;20809;-66
2023/01/26 03:11:42;;;;;;;8.63;3.50;;;;;;;;;;5051221;28;20032;-67
2023/01/26 03:14:12;;;;;;;3.40;2.37;;;;;;;;;;5049423;28;20498;-66
2023/01/26 03:16:39;;;;;;;4.77;3.07;;;;;;;;;;5030904;28;20069;-67
2023/01/26 03:27:27;;;;;;;6.72;2.33;;;;;;;;;;5042900;28;20502;-66
2023/01/26 03:29:55;;;;;;;3.17;2.07;;;;;;;;;;5053451;28;20479;-67
2023/01/26 03:32:22;;;;;;;1.90;1.23;;;;;;;;;;5053454;28;20032;-66
2023/01/26 03:34:48;;;;;;;3.13;1.67;;;;;;;;;;5053390;28;20024;-67
2023/01/26 03:37:20;;;;;;;6.50;3.07;;;;;;;;;;5053465;28;20423;-66
2023/01/26 03:56:23;;;;;;;3.15;2.40;;;;;;;;;;5033084;28;20095;-67
2023/01/26 03:58:56;;;;;;;6.90;2.83;;;;;;;;;;5033016;28;20013;-67
2023/01/26 04:01:27;;;;;;;6.90;1.80;;;;;;;;;;5029908;28;20056;-67
2023/01/26 04:09:27;;;;;;;6.10;1.70;;;;;;;;;;5040482;28;20053;-67
2023/01/26 04:11:54;;;;;;;3.13;2.20;;;;;;;;;;5031645;28;20033;-66
2023/01/26 04:22:42;;;;;;;1.98;1.73;;;;;;;;;;5031411;28;20041;-63
2023/01/26 04:25:13;;;;;;;2.87;1.67;;;;;;;;;;5026772;28;20037;-63
2023/01/26 04:27:40;;;;;;;3.50;1.70;;;;;;;;;;5020706;28;20026;-65
2023/01/26 04:30:09;;;;;;;4.87;3.03;;;;;;;;;;5007603;28;20026;-64
2023/01/26 04:32:36;;;;;;;4.17;2.53;;;;;;;;;;5010005;28;20485;-65
2023/01/26 04:35:03;;;;;;;7.47;4.37;;;;;;;;;;5032364;28;20026;-65
2023/01/26 04:37:29;;;;;;;5.00;3.07;;;;;;;;;;5032323;28;20092;-64
2023/01/26 04:39:56;;;;;;;6.53;3.20;;;;;;;;;;5032389;28;20014;-65
2023/01/26 04:42:23;;;;;;;5.87;3.13;;;;;;;;;;5032307;28;20026;-64
2023/01/26 04:44:53;;;;;;;4.80;2.93;;;;;;;;;;5031259;28;20477;-65
2023/01/26 04:47:20;;;;;;;5.37;3.43;;;;;;;;;;5027180;28;20025;-64
2023/01/26 04:49:47;;;;;;;2.83;1.93;;;;;;;;;;5026779;28;20065;-64
2023/01/26 04:52:14;;;;;;;2.63;1.80;;;;;;;;;;5026997;28;20026;-65
2023/01/26 04:54:41;;;;;;;3.93;1.90;;;;;;;;;;5027138;28;20026;-64
2023/01/26 04:57:08;;;;;;;2.73;1.63;;;;;;;;;;5032235;28;20021;-64
2023/01/26 04:59:35;;;;;;;6.37;1.90;;;;;;;;;;5032017;28;20026;-64
2023/01/26 05:02:02;;;;;;;21.90;2.97;;;;;;;;;;5031548;28;20439;-65
2023/01/26 05:04:28;;;;;;;2.23;1.63;;;;;;;;;;5032299;28;20025;-65
2023/01/26 05:06:55;;;;;;;8.17;2.90;;;;;;;;;;5031759;28;20065;-65
2023/01/26 05:09:22;;;;;;;2.30;1.70;;;;;;;;;;5026855;28;20037;-64
2023/01/26 05:11:48;;;;;;;2.00;1.70;;;;;;;;;;5026989;28;20076;-65
2023/01/26 05:14:15;;;;;;;7.17;2.33;;;;;;;;;;5026881;28;20025;-65
2023/01/26 05:16:42;;;;;;;2.43;1.50;;;;;;;;;;5026516;28;20477;-65
2023/01/26 05:19:08;;;;;;;1.73;1.43;;;;;;;;;;5031356;28;20048;-65
2023/01/26 05:21:35;;;;;;;2.00;1.47;;;;;;;;;;5032209;28;20025;-64
2023/01/26 05:24:02;;;;;;;4.50;2.50;;;;;;;;;;5032010;28;20053;-65
2023/01/26 05:26:28;;;;;;;1.93;1.47;;;;;;;;;;5032014;28;20033;-65
2023/01/26 05:28:55;;;;;;;6.30;2.40;;;;;;;;;;5031848;28;20041;-65
2023/01/26 05:31:22;;;;;;;3.00;1.70;;;;;;;;;;5026986;28;20017;-65
2023/01/26 05:33:49;;;;;;;1.67;1.30;;;;;;;;;;5027143;28;20022;-65
2023/01/26 05:36:15;;;;;;;1.87;1.57;;;;;;;;;;5029863;28;20036;-65
2023/01/26 05:38:42;;;;;;;5.53;3.13;;;;;;;;;;5030492;28;20033;-65
2023/01/26 05:41:09;;;;;;;4.83;1.77;;;;;;;;;;5034356;28;20025;-65
2023/01/26 05:43:35;;;;;;;3.70;2.03;;;;;;;;;;5035541;28;20503;-67
2023/01/26 05:46:02;;;;;;;6.33;2.20;;;;;;;;;;5035653;28;20388;-66
2023/01/26 05:48:29;;;;;;;1.30;1.03;;;;;;;;;;5035197;28;20029;-67
2023/01/26 05:50:56;;;;;;;3.67;1.87;;;;;;;;;;5015558;28;20029;-66
2023/01/26 05:53:23;;;;;;;8.60;2.27;;;;;;;;;;5011133;28;20049;-66
2023/01/26 05:55:50;;;;;;;2.30;1.63;;;;;;;;;;5010448;28;20030;-66
2023/01/26 05:58:16;;;;;;;3.70;2.03;;;;;;;;;;5010389;28;20033;-66
2023/01/26 06:00:43;;;;;;;3.40;1.50;;;;;;;;;;5010188;28;20026;-67
2023/01/26 06:03:10;;;;;;;3.93;2.37;;;;;;;;;;5013784;28;20442;-66
2023/01/26 06:05:37;;;;;;;2.70;1.80;;;;;;;;;;5028928;28;20029;-66
2023/01/26 06:08:04;;;;;;;2.00;1.80;;;;;;;;;;5034716;28;20120;-66
2023/01/26 06:10:31;;;;;;;3.80;2.47;;;;;;;;;;5035050;28;20052;-66
2023/01/26 06:12:58;;;;;;;1.53;1.23;;;;;;;;;;5035190;28;20205;-66
2023/01/26 06:15:24;;;;;;;3.80;2.03;;;;;;;;;;5031311;28;20096;-66
2023/01/26 06:17:51;;;;;;;1.80;1.53;;;;;;;;;;5029829;28;20033;-66
2023/01/26 06:20:18;;;;;;;4.80;1.90;;;;;;;;;;5030057;28;20384;-66
2023/01/26 06:22:44;;;;;;;4.17;2.77;;;;;;;;;;5029141;28;20018;-66
2023/01/26 06:25:11;;;;;;;6.60;3.27;;;;;;;;;;5032166;28;20540;-67
2023/01/26 06:27:40;;;;;;;2.47;1.90;;;;;;;;;;5034823;28;20376;-66
2023/01/26 06:30:08;;;;;;;4.03;2.33;;;;;;;;;;5034752;28;20070;-66
2023/01/26 06:32:35;;;;;;;6.30;2.83;;;;;;;;;;5034884;28;20537;-66
2023/01/26 06:35:07;;;;;;;17.17;2.60;;;;;;;;;;5034673;28;20113;-66
2023/01/26 06:37:34;;;;;;;4.97;2.37;;;;;;;;;;5031358;28;20033;-67
2023/01/26 06:40:01;;;;;;;1.40;1.20;;;;;;;;;;5028622;28;20079;-66
2023/01/26 06:42:27;;;;;;;2.87;1.90;;;;;;;;;;5029356;28;20036;-66
2023/01/26 06:44:56;;;;;;;3.87;2.27;;;;;;;;;;5028832;28;20060;-66
2023/01/26 06:47:23;;;;;;;7.17;2.63;;;;;;;;;;5031822;28;20052;-66
2023/01/26 06:49:49;;;;;;;5.27;3.53;;;;;;;;;;5034364;28;20556;-66
2023/01/26 06:52:32;;;;;;;2.47;1.77;;;;;;;;;;5034452;28;20033;-66
2023/01/26 06:54:59;;;;;;;3.23;2.27;;;;;;;;;;5034323;28;20107;-66
2023/01/26 06:57:26;;;;;;;3.00;2.00;;;;;;;;;;5033930;28;20037;-66
2023/01/26 06:59:52;;;;;;;5.53;2.43;;;;;;;;;;5030969;28;20498;-66
2023/01/26 07:02:21;;;;;;;17.67;3.23;;;;;;;;;;5028719;28;20105;-66
2023/01/26 07:04:48;;;;;;;3.27;2.27;;;;;;;;;;5028751;28;20396;-66
2023/01/26 07:07:15;;;;;;;3.17;2.20;;;;;;;;;;5028874;28;20508;-66
2023/01/26 07:09:41;;;;;;;4.43;2.37;;;;;;;;;;5030907;28;20040;-66
2023/01/26 07:12:08;;;;;;;5.40;3.03;;;;;;;;;;5033948;28;20025;-66
2023/01/26 07:14:35;;;;;;;1.70;1.20;;;;;;;;;;5033712;28;20107;-66
2023/01/26 07:17:02;;;;;;;4.10;2.83;;;;;;;;;;5033721;28;20021;-66
2023/01/26 07:19:30;;;;;;;2.70;2.00;;;;;;;;;;5033611;28;20100;-66
2023/01/26 07:21:57;;;;;;;2.50;2.00;;;;;;;;;;5030838;28;20444;-66
2023/01/26 07:24:23;;;;;;;2.23;1.90;;;;;;;;;;5028630;28;20030;-66
2023/01/26 07:26:50;;;;;;;4.27;2.67;;;;;;;;;;5028000;28;20476;-66
2023/01/26 07:29:17;;;;;;;2.13;1.90;;;;;;;;;;5028418;28;20037;-66
2023/01/26 07:31:44;;;;;;;16.73;3.50;;;;;;;;;;5030296;28;20042;-66
2023/01/26 07:34:11;;;;;;;3.67;2.17;;;;;;;;;;5033533;28;20519;-66
2023/01/26 07:36:37;;;;;;;2.00;1.70;;;;;;;;;;5033267;28;20112;-66
2023/01/26 07:39:05;;;;;;;2.90;2.20;;;;;;;;;;5033463;28;20025;-66
2023/01/26 07:41:32;;;;;;;2.33;1.50;;;;;;;;;;5033468;28;20039;-66
2023/01/26 07:43:59;;;;;;;3.33;2.57;;;;;;;;;;5030663;28;20056;-66
2023/01/26 07:46:25;;;;;;;3.77;2.33;;;;;;;;;;5028156;28;20030;-66
2023/01/26 07:48:52;;;;;;;3.47;2.27;;;;;;;;;;5027805;28;20037;-68
2023/01/26 07:51:19;;;;;;;4.53;1.67;;;;;;;;;;5028008;28;20028;-66
2023/01/26 07:53:48;;;;;;;3.87;2.83;;;;;;;;;;5029261;28;20064;-66
2023/01/26 07:56:19;;;;;;;3.30;2.43;;;;;;;;;;5032926;28;20026;-66
2023/01/26 07:58:49;;;;;;;4.30;3.10;;;;;;;;;;5031870;28;20104;-66
2023/01/26 08:01:15;;;;;;;3.53;2.10;;;;;;;;;;5033170;28;20036;-66
2023/01/26 08:03:44;;;;;;;1.87;1.50;;;;;;;;;;5032878;28;20407;-66
2023/01/26 08:06:11;;;;;;;2.47;1.80;;;;;;;;;;5030373;28;20040;-66
2023/01/26 08:08:41;;;;;;;7.20;2.43;;;;;;;;;;5027757;28;20033;-66
2023/01/26 08:11:08;;;;;;;2.80;2.10;;;;;;;;;;5027279;28;20495;-67
2023/01/26 08:13:34;;;;;;;3.10;1.80;;;;;;;;;;5027226;28;20028;-66
2023/01/26 08:16:02;;;;;;;3.27;2.70;;;;;;;;;;5029173;28;20384;-66
2023/01/26 08:18:29;;;;;;;3.47;2.70;;;;;;;;;;5031196;28;20109;-65
2023/01/26 08:20:56;;;;;;;6.23;2.53;;;;;;;;;;5032798;28;20024;-66
2023/01/26 08:23:23;;;;;;;6.17;2.53;;;;;;;;;;5032674;28;20258;-66
2023/01/26 08:25:49;;;;;;;5.13;1.53;;;;;;;;;;5032445;28;20289;-66
2023/01/26 08:28:16;;;;;;;3.03;2.20;;;;;;;;;;5030118;28;20765;-66
2023/01/26 08:30:43;;;;;;;3.37;2.50;;;;;;;;;;5027224;28;20308;-66
2023/01/26 08:33:09;;;;;;;3.17;2.47;;;;;;;;;;5027343;28;20365;-65
2023/01/26 08:35:36;;;;;;;2.97;2.30;;;;;;;;;;5027193;28;20273;-66
2023/01/26 08:38:03;;;;;;;2.07;1.50;;;;;;;;;;5028405;28;20622;-66
2023/01/26 08:40:30;;;;;;;3.47;2.07;;;;;;;;;;5032211;28;20605;-66
2023/01/26 08:42:59;;;;;;;2.73;2.03;;;;;;;;;;5032235;28;20351;-65
2023/01/26 08:45:25;;;;;;;2.07;1.73;;;;;;;;;;5031965;28;20286;-65
2023/01/26 08:47:52;;;;;;;3.33;2.20;;;;;;;;;;5032290;28;20254;-65
2023/01/26 08:50:19;;;;;;;2.70;2.07;;;;;;;;;;5030848;28;20266;-66
2023/01/26 08:52:46;;;;;;;3.27;2.37;;;;;;;;;;5026836;28;20753;-66
2023/01/26 08:55:12;;;;;;;3.63;2.97;;;;;;;;;;5027018;28;20259;-66
2023/01/26 08:57:40;;;;;;;2.63;1.97;;;;;;;;;;5026593;28;20300;-66
2023/01/26 09:00:08;;;;;;;2.73;2.43;;;;;;;;;;5027652;28;20328;-66
2023/01/26 09:02:34;;;;;;;3.43;2.73;;;;;;;;;;5032117;28;20303;-66
2023/01/26 09:05:01;;;;;;;5.30;3.33;;;;;;;;;;5032342;28;20259;-65
2023/01/26 09:07:28;;;;;;;4.50;3.10;;;;;;;;;;5032291;28;20259;-65
2023/01/26 09:09:54;;;;;;;6.20;3.17;;;;;;;;;;5035437;28;20344;-65
2023/01/26 09:12:21;;;;;;;5.37;2.13;;;;;;;;;;5035056;28;20259;-66
2023/01/26 09:14:48;;;;;;;3.50;2.67;;;;;;;;;;5030364;28;20700;-65
2023/01/26 09:17:14;;;;;;;5.03;2.90;;;;;;;;;;5030468;28;20321;-66
2023/01/26 09:19:41;;;;;;;2.77;2.17;;;;;;;;;;5030890;28;20263;-66
2023/01/26 09:22:08;;;;;;;5.53;2.73;;;;;;;;;;5030775;28;20793;-66
2023/01/26 09:24:34;;;;;;;4.57;2.97;;;;;;;;;;5035976;28;20324;-66
2023/01/26 09:27:01;;;;;;;3.33;2.57;;;;;;;;;;5035996;28;20254;-66
2023/01/26 09:29:28;;;;;;;3.97;3.07;;;;;;;;;;5035051;28;20622;-66
2023/01/26 09:31:55;;;;;;;5.33;2.67;;;;;;;;;;5035319;28;20262;-65
2023/01/26 09:34:24;;;;;;;4.13;2.30;;;;;;;;;;5035502;28;20274;-65
2023/01/26 09:36:50;;;;;;;5.10;3.43;;;;;;;;;;5030065;28;20259;-66
2023/01/26 09:39:17;;;;;;;6.70;3.50;;;;;;;;;;5030652;28;20827;-65
2023/01/26 09:42:04;;;;;;;2.00;1.77;;;;;;;;;;5030269;28;20271;-66
2023/01/26 09:44:33;;;;;;;5.50;3.30;;;;;;;;;;5030391;28;20379;-65
2023/01/26 09:47:11;;;;;;;3.83;2.83;;;;;;;;;;5034906;28;20749;-65
2023/01/26 09:49:43;;;;;;;2.67;2.20;;;;;;;;;;5035272;28;20804;-65
2023/01/26 09:52:10;;;;;;;3.23;2.10;;;;;;;;;;5035582;28;20258;-65
2023/01/26 09:54:39;;;;;;;2.47;1.97;;;;;;;;;;5035390;28;20259;-65
2023/01/26 09:57:13;;;;;;;3.70;2.57;;;;;;;;;;5033796;28;20255;-65
2023/01/26 09:59:52;;;;;;;3.30;2.13;;;;;;;;;;5030032;28;20610;-66
2023/01/26 10:02:37;;;;;;;1.93;1.53;;;;;;;;;;5030111;28;20329;-65
2023/01/26 10:05:13;;;;;;;2.15;1.55;;;;;;;;;;5029845;28;20273;-66
2023/01/26 10:07:44;;;;;;;2.27;1.67;;;;;;;;;;5032785;28;20025;-65
2023/01/26 10:10:16;;;;;;;2.90;2.17;;;;;;;;;;5035083;28;20869;-65
2023/01/26 10:12:42;;;;;;;2.70;2.27;;;;;;;;;;5035194;28;20251;-66
2023/01/26 10:15:21;;;;;;;7.30;1.93;;;;;;;;;;5034984;28;20337;-65
2023/01/26 10:17:49;;;;;;;3.93;2.03;;;;;;;;;;5034853;28;20341;-65
2023/01/26 10:20:15;;;;;;;3.23;2.43;;;;;;;;;;5030091;28;20263;-65
2023/01/26 10:22:44;;;;;;;3.53;2.53;;;;;;;;;;5029513;28;20282;-66
2023/01/26 10:25:14;;;;;;;3.40;2.30;;;;;;;;;;5029509;28;20761;-65
2023/01/26 10:27:42;;;;;;;3.13;2.30;;;;;;;;;;5029594;28;20337;-66
2023/01/26 10:30:16;;;;;;;3.20;1.83;;;;;;;;;;5032146;28;20706;-66
2023/01/26 10:32:43;;;;;;;4.50;2.90;;;;;;;;;;5034441;28;20305;-65
2023/01/26 10:35:18;;;;;;;2.37;1.57;;;;;;;;;;5034560;28;20251;-65
2023/01/26 10:37:46;;;;;;;4.70;1.83;;;;;;;;;;5034701;28;20674;-65
2023/01/26 10:40:12;;;;;;;1.57;1.37;;;;;;;;;;5034535;28;20017;-65
2023/01/26 10:42:39;;;;;;;3.07;2.03;;;;;;;;;;5030876;28;20271;-65
2023/01/26 10:45:24;;;;;;;2.17;1.87;;;;;;;;;;5029487;28;20251;-66
2023/01/26 10:48:02;;;;;;;3.60;2.40;;;;;;;;;;5029163;28;20265;-65
2023/01/26 10:50:30;;;;;;;9.83;2.37;;;;;;;;;;5028636;28;20282;-65
2023/01/26 10:52:58;;;;;;;1.57;1.37;;;;;;;;;;5033291;28;20277;-65
2023/01/26 10:55:25;;;;;;;0.83;0.77;;;;;;;;;;5033820;28;20263;-65
2023/01/26 10:57:51;;;;;;;1.70;1.27;;;;;;;;;;5034149;28;20247;-65
2023/01/26 11:00:21;;;;;;;1.83;1.53;;;;;;;;;;5033993;28;20258;-65
2023/01/26 11:02:55;;;;;;;4.83;2.20;;;;;;;;;;5034145;28;20262;-65
2023/01/26 11:05:22;;;;;;;3.67;2.33;;;;;;;;;;5029368;28;20262;-65
2023/01/26 11:07:53;;;;;;;4.00;2.73;;;;;;;;;;5028974;28;20653;-65
2023/01/26 11:10:22;;;;;;;2.63;2.07;;;;;;;;;;5028866;28;20342;-65
2023/01/26 11:12:49;;;;;;;3.63;2.53;;;;;;;;;;5028620;28;20291;-67
2023/01/26 11:15:23;;;;;;;2.93;2.23;;;;;;;;;;5032792;28;20258;-65
2023/01/26 11:17:57;;;;;;;1.73;1.40;;;;;;;;;;5033589;28;20274;-65
2023/01/26 11:20:33;;;;;;;4.13;2.53;;;;;;;;;;5033735;28;20749;-66
2023/01/26 11:23:12;;;;;;;5.80;3.13;;;;;;;;;;5033537;28;20304;-66
2023/01/26 11:25:42;;;;;;;3.37;2.27;;;;;;;;;;5033113;28;20258;-66
2023/01/26 11:28:27;;;;;;;3.40;2.50;;;;;;;;;;5028438;28;20781;-67
2023/01/26 11:31:10;;;;;;;1.52;1.23;;;;;;;;;;5028240;28;20247;-66
2023/01/26 11:33:46;;;;;;;2.07;1.87;;;;;;;;;;5028409;28;20080;-65
2023/01/26 11:36:13;;;;;;;1.90;1.50;;;;;;;;;;5029839;28;20264;-66
2023/01/26 11:39:06;;;;;;;3.17;1.90;;;;;;;;;;5032880;28;20271;-65
2023/01/26 11:41:52;;;;;;;2.50;2.03;;;;;;;;;;5031501;28;20325;-65
2023/01/26 11:44:28;;;;;;;3.97;2.03;;;;;;;;;;5025124;28;20295;-66
2023/01/26 11:47:02;;;;;;;3.20;2.03;;;;;;;;;;5033487;28;20259;-66
2023/01/26 11:49:44;;;;;;;9.77;7.20;;;;;;;;;;5029645;28;20785;-66
2023/01/26 11:52:11;;;;;;;13.70;11.57;;;;;;;;;;5028157;28;20041;-65
2023/01/26 11:54:40;;;;;;;17.00;11.90;;;;;;;;;;5027207;28;20269;-65
2023/01/26 11:57:15;;;;;;;12.63;8.73;;;;;;;;;;5027844;28;20259;-65
2023/01/26 11:59:48;;;;;;;13.13;7.93;;;;;;;;;;5031753;28;20301;-65
2023/01/26 12:02:35;;;;;;;19.33;4.50;;;;;;;;;;5033085;28;20022;-65
2023/01/26 12:05:21;;;;;;;9.20;6.47;;;;;;;;;;5032732;28;20792;-65
2023/01/26 12:07:54;;;;;;;14.53;6.37;;;;;;;;;;5032849;28;20655;-65
2023/01/26 12:10:25;;;;;;;8.93;5.10;;;;;;;;;;5032602;28;20286;-65
2023/01/26 12:13:08;;;;;;;8.37;6.10;;;;;;;;;;5026989;28;20269;-66
2023/01/26 12:15:36;;;;;;;6.40;4.73;;;;;;;;;;5027622;28;20259;-66
2023/01/26 12:18:03;;;;;;;9.70;5.13;;;;;;;;;;5027633;28;20642;-66
2023/01/26 12:20:39;;;;;;;7.53;4.87;;;;;;;;;;5027581;28;20322;-65
2023/01/26 12:23:10;;;;;;;7.87;3.60;;;;;;;;;;5032142;28;20261;-65
2023/01/26 12:25:39;;;;;;;5.60;4.57;;;;;;;;;;5032650;28;20808;-65
2023/01/26 12:28:14;;;;;;;5.73;4.17;;;;;;;;;;5032694;28;20776;-65
2023/01/26 12:30:56;;;;;;;6.53;4.83;;;;;;;;;;5031988;28;20304;-65
2023/01/26 12:33:23;;;;;;;5.20;3.60;;;;;;;;;;5030841;28;20255;-65
2023/01/26 12:35:59;;;;;;;5.53;3.10;;;;;;;;;;5027101;28;20267;-66
2023/01/26 12:38:41;;;;;;;4.33;3.17;;;;;;;;;;5027177;28;20659;-66
2023/01/26 12:41:19;;;;;;;4.23;3.33;;;;;;;;;;5026943;28;20263;-65
2023/01/26 12:44:07;;;;;;;4.27;3.37;;;;;;;;;;5028673;28;20381;-65
2023/01/26 12:46:36;;;;;;;5.50;3.70;;;;;;;;;;5032063;28;20809;-66
2023/01/26 12:49:10;;;;;;;4.73;3.17;;;;;;;;;;5032273;28;20369;-65
2023/01/26 12:51:41;;;;;;;4.45;3.35;;;;;;;;;;5032561;28;20251;-65
2023/01/26 12:54:20;;;;;;;5.97;3.63;;;;;;;;;;5032417;28;20095;-65
2023/01/26 12:56:50;;;;;;;6.13;3.97;;;;;;;;;;5028345;28;20297;-65
2023/01/26 12:59:20;;;;;;;5.40;3.47;;;;;;;;;;5027005;28;20297;-65
2023/01/26 13:01:47;;;;;;;4.30;2.30;;;;;;;;;;5026922;28;20263;-65
2023/01/26 13:04:15;;;;;;;7.10;2.80;;;;;;;;;;5026533;28;20271;-66
2023/01/26 13:06:42;;;;;;;7.30;2.87;;;;;;;;;;5029811;28;20293;-64
2023/01/26 13:09:20;;;;;;;4.60;2.57;;;;;;;;;;5031994;28;20673;-64
2023/01/26 13:11:59;;;;;;;6.00;3.10;;;;;;;;;;5032038;28;20294;-64
2023/01/26 13:14:32;;;;;;;3.53;2.47;;;;;;;;;;5032030;28;20254;-64
2023/01/26 13:17:19;;;;;;;3.97;2.70;;;;;;;;;;5032057;28;20285;-64
2023/01/26 13:19:45;;;;;;;2.77;2.17;;;;;;;;;;5019483;28;20741;-64
2023/01/26 13:22:32;;;;;;;5.93;2.87;;;;;;;;;;5026494;28;20408;-64
2023/01/26 13:25:12;;;;;;;8.43;3.07;;;;;;;;;;5016286;28;20267;-64
2023/01/26 13:27:38;;;;;;;4.63;2.50;;;;;;;;;;5026633;28;20792;-65
2023/01/26 13:30:23;;;;;;;6.23;2.77;;;;;;;;;;5031164;28;20286;-64
2023/01/26 13:32:50;;;;;;;3.85;2.13;;;;;;;;;;5031429;28;20595;-64
2023/01/26 13:35:18;;;;;;;3.07;2.23;;;;;;;;;;5031914;28;20048;-64
2023/01/26 13:37:48;;;;;;;3.70;2.87;;;;;;;;;;5031640;28;20282;-64
2023/01/26 13:40:33;;;;;;;3.60;2.00;;;;;;;;;;5031114;28;20263;-64
2023/01/26 13:43:15;;;;;;;1.07;0.97;;;;;;;;;;5026586;28;20341;-64
2023/01/26 13:46:11;;;;;;;3.77;2.50;;;;;;;;;;5027103;28;20266;-64
2023/01/26 13:48:42;;;;;;;2.85;2.58;;;;;;;;;;5009376;28;20302;-65
2023/01/26 13:51:12;;;;;;;3.10;2.57;;;;;;;;;;5026915;28;20026;-65
2023/01/26 13:53:40;;;;;;;6.63;2.77;;;;;;;;;;5030525;28;20273;-64
2023/01/26 13:56:20;;;;;;;9.10;2.23;;;;;;;;;;5034628;28;20259;-65
2023/01/26 13:58:46;;;;;;;5.33;3.33;;;;;;;;;;5034804;28;20261;-65
2023/01/26 14:01:14;;;;;;;4.77;3.40;;;;;;;;;;5035302;28;20891;-64
2023/01/26 14:03:40;;;;;;;6.40;2.77;;;;;;;;;;5034694;28;20251;-65
2023/01/26 14:06:09;;;;;;;2.47;1.93;;;;;;;;;;5030019;28;20617;-65
2023/01/26 14:08:36;;;;;;;3.57;3.03;;;;;;;;;;5029032;28;20615;-65
2023/01/26 14:11:05;;;;;;;2.97;2.33;;;;;;;;;;5029689;28;20400;-65
2023/01/26 14:13:38;;;;;;;11.30;3.07;;;;;;;;;;5029567;28;20259;-65
2023/01/26 14:16:06;;;;;;;4.30;2.73;;;;;;;;;;5034520;28;20266;-65
2023/01/26 14:18:33;;;;;;;3.50;2.50;;;;;;;;;;5035148;28;20740;-65
2023/01/26 14:21:02;;;;;;;2.97;2.27;;;;;;;;;;5034980;28;20263;-65
2023/01/26 14:23:32;;;;;;;2.50;1.90;;;;;;;;;;5034425;28;20392;-65
2023/01/26 14:26:05;;;;;;;2.67;1.83;;;;;;;;;;5034464;28;20025;-65
2023/01/26 14:28:36;;;;;;;1.80;1.30;;;;;;;;;;5029347;28;20044;-65
2023/01/26 14:31:06;;;;;;;2.60;1.77;;;;;;;;;;5029484;28;20030;-65
2023/01/26 14:33:33;;;;;;;3.27;2.23;;;;;;;;;;5029252;28;20049;-65
2023/01/26 14:36:01;;;;;;;2.77;1.67;;;;;;;;;;5029304;28;20025;-66
2023/01/26 14:38:28;;;;;;;1.63;1.20;;;;;;;;;;5033308;28;20028;-65
2023/01/26 14:40:57;;;;;;;6.07;1.30;;;;;;;;;;5034460;28;20061;-65
2023/01/26 14:43:24;;;;;;;4.57;1.50;;;;;;;;;;5034345;28;20104;-65
2023/01/26 14:46:04;;;;;;;1.47;1.17;;;;;;;;;;5034579;28;20484;-65
2023/01/26 14:48:37;;;;;;;2.97;1.53;;;;;;;;;;5034253;28;20104;-65
2023/01/26 14:51:05;;;;;;;1.37;0.97;;;;;;;;;;5028939;28;20041;-65
2023/01/26 14:53:32;;;;;;;0.90;0.67;;;;;;;;;;5029041;28;20048;-65
2023/01/26 14:55:59;;;;;;;2.90;1.33;;;;;;;;;;5028806;28;20032;-66
2023/01/26 14:58:30;;;;;;;8.90;3.77;;;;;;;;;;5028367;28;20147;-65
2023/01/26 15:00:58;;;;;;;5.50;3.60;;;;;;;;;;5033937;28;20025;-66
2023/01/26 15:03:38;;;;;;;0.80;0.63;;;;;;;;;;5033806;28;20387;-66
2023/01/26 15:06:17;;;;;;;1.37;1.00;;;;;;;;;;5033607;28;20014;-66
2023/01/26 15:08:55;;;;;;;2.20;1.30;;;;;;;;;;5034279;28;20451;-66
2023/01/26 15:14:42;;;;;;;0.97;0.77;;;;;;;;;;5028507;28;20082;-66
2023/01/26 15:17:26;;;;;;;1.20;0.70;;;;;;;;;;5018792;28;20053;-65
2023/01/26 15:19:52;;;;;;;0.97;0.70;;;;;;;;;;5028414;28;20431;-64
2023/01/26 15:22:20;;;;;;;1.50;1.07;;;;;;;;;;5032062;28;20097;-66
2023/01/26 15:24:58;;;;;;;2.67;1.30;;;;;;;;;;5033811;28;20021;-65
2023/01/26 15:27:29;;;;;;;1.23;0.90;;;;;;;;;;5033624;28;20057;-65
2023/01/26 15:30:00;;;;;;;0.77;0.70;;;;;;;;;;5033409;28;20030;-66
2023/01/26 15:32:29;;;;;;;2.03;0.70;;;;;;;;;;5033366;28;20088;-66
2023/01/26 15:35:14;;;;;;;2.27;1.17;;;;;;;;;;5012445;28;20116;-66
2023/01/26 15:37:40;;;;;;;1.85;1.23;;;;;;;;;;5028112;28;20034;-65
2023/01/26 15:40:08;;;;;;;1.20;0.83;;;;;;;;;;5028126;28;20025;-67
2023/01/26 15:42:34;;;;;;;2.93;1.50;;;;;;;;;;5027868;28;20033;-66
2023/01/26 15:45:01;;;;;;;8.90;1.27;;;;;;;;;;5033067;28;20060;-66
2023/01/26 15:47:28;;;;;;;0.77;0.73;;;;;;;;;;5033198;28;20030;-66